Date,TemperatureHighF,TemperatureAvgF,TemperatureLowF,DewpointHighF,DewpointAvgF,DewpointLowF,HumidityHigh,HumidityAvg,HumidityLow,PressureMaxIn,PressureMinIn,WindSpeedMaxMPH,WindSpeedAvgMPH,GustSpeedMaxMPH,PrecipitationSumIn
2014-1-1,28,21,15,21,15,9,94,78,66,30.41,30.25,12,1,12,0.00
2014-1-2,20,11,1,18,9,-2,100,92,88,30.29,29.75,14,3,14,0.00
2014-1-3,6,1,-2,5,-2,-5,100,88,87,30.49,29.73,17,4,17,0.00
2014-1-4,19,10,-2,15,6,-5,88,84,77,30.54,30.32,12,2,14,0.00
2014-1-5,46,29,16,46,26,13,100,88,72,30.33,29.78,23,3,23,0.27
2014-1-6,53,38,15,53,36,7,100,93,65,29.78,29.37,20,4,20,0.55
2014-1-7,15,4,0,8,-6,-9,74,64,54,30.35,29.60,20,4,20,0.00
2014-1-8,16,9,1,6,1,-5,77,71,61,30.54,30.34,14,1,14,0.00
2014-1-9,26,19,13,15,11,5,82,70,59,30.67,30.50,12,1,12,0.00
2014-1-10,37,28,21,37,26,13,99,92,71,30.61,30.23,10,1,10,0.05
2014-1-11,55,49,37,55,49,37,100,100,99,30.23,29.27,20,4,20,0.53
2014-1-12,48,37,31,48,32,27,100,81,70,30.04,29.36,21,5,21,0.00
2014-1-13,43,37,29,38,32,26,90,83,75,30.12,29.88,18,3,18,0.00
2014-1-14,42,41,36,42,40,36,99,95,81,29.88,29.67,11,2,16,0.42
2014-1-15,42,37,32,38,35,31,98,92,80,29.98,29.83,12,1,12,0.00
2014-1-16,36,30,27,36,28,25,98,95,90,29.95,29.86,12,2,12,0.00
2014-1-17,38,31,25,29,26,22,95,82,68,29.98,29.90,12,1,12,0.00
2014-1-18,33,29,20,30,26,18,96,87,76,29.90,29.66,12,1,12,0.02
2014-1-19,30,24,19,24,20,16,91,84,76,29.81,29.62,16,2,16,0.03
2014-1-20,36,31,21,30,25,12,87,77,67,29.91,29.57,17,2,17,0.03
2014-1-21,21,10,3,12,6,-1,89,81,67,30.02,29.88,17,3,17,0.00
2014-1-22,8,2,-5,-1,-4,-9,92,75,66,30.02,29.83,20,4,20,0.00
2014-1-23,16,6,-1,6,0,-6,85,74,62,30.28,30.01,15,2,15,0.00
2014-1-24,16,8,2,4,0,-3,79,69,54,30.36,30.06,15,3,15,0.00
2014-1-25,19,16,10,17,11,2,93,81,67,30.06,29.44,22,4,22,0.00
2014-1-26,22,14,8,16,8,1,93,76,57,29.87,29.44,18,3,18,0.00
2014-1-27,37,25,12,30,16,-1,88,70,49,30.07,29.61,19,4,19,0.03
2014-1-28,13,9,3,0,-2,-4,73,60,49,30.36,30.07,14,2,15,0.00
2014-1-29,20,12,5,6,1,-3,87,62,45,30.31,30.07,14,1,14,0.00
2014-1-30,24,16,8,12,5,-1,78,62,49,30.47,30.19,19,2,19,0.01
2014-1-31,35,27,18,24,16,9,76,64,53,30.25,30.09,12,1,12,0.02
2014-2-1,40,34,29,33,26,21,93,72,60,30.34,30.03,15,2,15,0.03
2014-2-2,47,38,32,37,34,30,98,88,65,30.10,29.90,10,1,10,0.01
2014-2-3,32,26,19,30,24,17,96,93,83,30.33,30.08,13,2,13,0.00
2014-2-4,28,21,15,22,18,12,100,86,74,30.50,30.30,10,1,10,0.09
2014-2-5,28,24,21,27,22,19,97,95,81,30.30,29.67,11,2,11,0.00
2014-2-6,21,17,12,20,14,10,95,85,73,30.30,29.99,10,1,10,0.00
2014-2-7,28,20,14,16,12,9,84,70,55,30.32,30.21,13,1,13,0.01
2014-2-8,24,18,12,9,5,1,65,57,46,30.33,30.15,12,1,12,0.00
2014-2-9,24,18,12,19,12,5,100,76,63,30.20,29.99,6,1,8,0.00
2014-2-10,26,18,14,17,11,6,93,73,56,30.27,29.98,14,2,14,0.01
2014-2-11,20,13,7,11,5,2,82,69,56,30.49,30.26,13,1,13,0.00
2014-2-12,21,12,4,12,4,-1,85,70,46,30.58,30.36,7,2,11,0.00
2014-2-13,26,21,15,25,20,10,97,94,81,30.35,29.09,15,4,15,0.00
2014-2-14,32,28,24,32,27,23,98,96,92,29.79,29.02,24,2,24,0.00
2014-2-15,29,27,21,27,25,19,97,93,89,29.80,29.64,16,2,16,0.00
2014-2-16,23,18,14,19,14,10,93,83,69,30.09,29.75,16,2,16,0.00
2014-2-17,24,17,8,11,6,1,83,64,44,30.41,30.09,15,2,15,0.00
2014-2-18,31,25,19,30,20,2,97,81,44,30.35,29.96,16,3,16,0.00
2014-2-19,37,31,25,37,28,20,99,90,78,30.11,29.70,20,2,20,0.01
2014-2-20,47,36,30,34,29,23,98,77,46,30.24,29.99,15,2,15,0.12
2014-2-21,44,36,33,44,36,33,100,100,98,30.04,29.66,19,5,19,0.27
2014-2-22,48,40,33,34,28,23,100,63,46,30.01,29.90,19,2,19,0.00
2014-2-23,44,40,36,32,29,25,73,65,55,30.00,29.79,10,0,10,0.00
2014-2-24,39,27,18,30,16,9,76,65,52,30.04,29.79,19,4,19,0.00
2014-2-25,25,19,14,17,11,6,77,69,62,30.05,29.92,16,2,16,0.00
2014-2-26,25,17,10,17,7,-3,86,65,46,29.97,29.83,21,2,21,0.00
2014-2-27,27,15,5,16,3,-9,79,59,45,30.06,29.62,23,4,23,0.00
2014-2-28,17,10,1,2,-3,-8,73,57,47,30.45,30.06,14,1,14,0.00
2014-3-1,31,21,12,19,10,-2,66,61,54,30.45,30.15,14,1,14,0.00
2014-3-2,32,28,20,23,20,13,80,71,64,30.15,30.01,9,1,9,0.00
2014-3-3,20,13,7,16,3,-3,85,63,52,30.35,30.03,12,2,12,0.00
2014-3-4,24,14,3,11,4,-4,81,66,51,30.44,30.28,9,1,9,0.00
2014-3-5,25,21,12,15,12,5,82,68,59,30.51,30.24,16,1,16,0.00
2014-3-6,24,14,4,8,3,-1,88,60,43,30.65,30.50,9,2,14,0.00
2014-3-7,34,26,17,26,19,7,85,75,63,30.52,30.08,7,1,7,0.00
2014-3-8,31,31,31,24,24,23,75,75,74,30.09,30.08,0,0,1,0.00
2014-3-9,37,32,29,24,21,14,75,65,49,30.09,29.92,13,1,13,0.00
2014-3-10,44,36,29,32,27,16,79,70,59,29.92,29.59,14,1,14,0.00
2014-3-11,54,46,39,38,34,30,80,62,45,29.71,29.54,16,2,16,0.00
2014-3-12,49,40,21,43,33,20,99,77,49,29.70,29.03,14,2,17,0.12
2014-3-13,22,17,11,20,9,2,95,72,47,30.06,29.16,24,2,24,0.00
2014-3-14,37,25,12,28,14,2,78,65,53,30.22,29.91,16,2,16,0.00
2014-3-15,48,41,33,36,30,24,78,66,49,29.99,29.75,18,3,20,0.00
2014-3-16,33,26,19,24,14,6,72,59,47,30.20,29.98,15,3,18,0.00
2014-3-17,27,19,12,9,6,2,71,56,37,30.17,30.07,12,2,12,0.00
2014-3-18,38,27,14,22,9,4,80,47,31,30.32,30.16,12,1,12,0.00
2014-3-19,37,31,25,34,27,20,99,87,73,30.33,29.88,19,4,19,0.45
2014-3-20,45,38,33,39,33,25,99,83,59,29.87,29.72,18,3,18,0.03
2014-3-21,42,35,30,27,24,21,77,65,52,30.06,29.85,24,4,24,0.00
2014-3-22,53,42,29,39,30,21,86,64,48,30.07,29.75,19,5,19,0.00
2014-3-23,52,51,50,33,33,32,49,49,49,29.83,29.81,8,8,18,0.00
2014-3-24,41,38,34,26,24,22,61,58,56,29.91,29.88,5,5,6,0.00
2014-3-25,34,31,27,22,20,18,69,64,61,29.94,29.89,4,3,5,0.00
2014-3-26,30,25,17,20,13,5,79,59,42,30.19,29.76,26,5,26,0.00
2014-3-27,40,27,14,24,14,7,77,59,37,30.42,30.19,16,1,16,0.00
2014-3-28,49,40,31,49,36,22,100,88,65,30.25,29.98,12,3,14,0.00
2014-3-29,49,42,38,48,41,37,99,95,88,30.21,29.75,18,4,18,0.00
2014-3-30,41,37,32,41,37,32,100,100,99,29.75,29.55,22,6,22,0.00
2014-3-31,47,35,30,38,32,27,100,89,67,30.08,29.72,22,5,22,0.00
2014-4-1,53,42,31,36,32,27,89,69,51,30.14,30.00,18,2,18,0.00
2014-4-2,59,44,34,42,37,32,97,80,51,30.11,30.02,12,1,12,0.00
2014-4-3,57,47,35,40,30,26,86,56,31,30.14,30.02,11,2,11,0.00
2014-4-4,46,39,33,34,32,30,98,79,59,30.06,29.78,23,5,23,0.00
2014-4-5,51,39,32,41,32,23,100,78,52,30.03,29.73,21,4,21,0.00
2014-4-6,58,42,28,29,25,22,80,55,28,30.21,30.02,13,1,17,0.00
2014-4-7,49,44,39,45,30,23,99,61,39,30.20,29.70,20,3,20,0.00
2014-4-8,61,50,40,57,45,34,100,87,64,29.70,29.36,22,4,22,0.00
2014-4-9,58,45,37,40,31,18,85,60,38,30.02,29.59,24,4,24,0.00
2014-4-10,60,46,34,38,28,18,68,49,36,30.18,30.01,18,2,18,0.00
2014-4-11,48,47,43,41,37,36,92,69,64,30.10,30.01,5,4,12,0.00
2014-4-12,70,54,42,48,41,36,99,67,32,30.23,30.10,13,1,13,0.00
2014-4-13,76,60,48,58,48,34,93,67,52,30.19,29.94,18,3,18,0.00
2014-4-14,74,64,57,60,56,54,96,78,57,29.97,29.81,20,4,20,0.00
2014-4-15,59,52,30,58,51,29,100,98,89,29.85,29.48,25,5,25,0.00
2014-4-16,40,31,23,29,23,19,99,73,48,30.60,29.85,20,4,20,0.00
2014-4-17,48,36,28,29,24,18,87,61,40,30.74,30.60,13,3,13,0.00
2014-4-18,47,37,27,33,29,24,92,76,55,30.61,30.25,10,1,10,0.00
2014-4-19,60,49,37,39,32,26,82,56,31,30.38,30.21,17,2,17,0.00
2014-4-20,59,47,38,32,28,26,69,50,32,30.48,30.31,13,2,13,0.00
2014-4-21,69,52,37,41,30,21,79,47,22,30.31,29.84,12,1,12,0.00
2014-4-22,71,55,45,54,47,40,92,75,47,29.84,29.49,6,2,14,0.00
2014-4-23,53,46,40,50,41,30,98,83,64,29.79,29.47,22,4,22,0.00
2014-4-24,58,45,35,30,23,19,75,44,25,30.03,29.79,25,6,25,0.00
2014-4-25,64,49,38,39,27,21,91,45,25,30.05,29.77,13,1,13,0.00
2014-4-26,60,47,40,49,43,36,99,87,56,29.86,29.71,11,1,11,0.00
2014-4-27,45,42,40,41,37,36,89,85,80,29.94,29.86,14,3,14,0.00
2014-4-28,59,54,47,39,37,36,72,55,43,30.13,29.99,19,2,19,0.00
2014-4-29,47,42,38,40,38,37,97,87,73,30.43,30.13,19,5,19,0.00
2014-4-30,47,40,36,47,39,35,100,98,96,30.43,30.01,21,8,25,0.00
2014-5-1,76,59,47,64,54,47,100,88,48,30.01,29.67,16,2,18,0.00
2014-5-2,66,55,47,50,42,38,94,65,42,29.83,29.69,13,1,14,0.00
2014-5-3,67,55,46,50,42,38,89,64,42,29.85,29.72,11,1,11,0.00
2014-5-4,65,53,45,47,39,29,90,61,34,29.74,29.59,26,4,26,0.00
2014-5-5,65,53,43,41,37,31,80,57,35,29.89,29.74,18,3,18,0.00
2014-5-6,64,54,44,40,35,32,77,51,35,29.99,29.87,15,2,15,0.00
2014-5-7,56,55,54,32,32,32,42,41,40,29.98,29.97,2,2,7,0.00
2014-5-8,56,55,54,32,32,32,42,41,40,29.98,29.97,2,2,7,0.00
2014-5-9,56,55,54,32,32,32,42,41,40,29.98,29.97,2,2,7,0.00
2014-5-10,56,55,54,32,32,32,42,41,40,29.98,29.97,2,2,7,0.00
2014-5-11,56,55,54,32,32,32,42,41,40,29.98,29.97,2,2,7,0.00
2014-5-12,56,55,54,32,32,32,42,41,40,29.98,29.97,2,2,7,0.00
2014-5-13,56,55,54,32,32,32,42,41,40,29.98,29.97,2,2,7,0.00
2014-5-14,56,55,54,32,32,32,42,41,40,29.98,29.97,2,2,7,0.00
2014-5-15,56,55,54,32,32,32,42,41,40,29.98,29.97,2,2,7,0.00
2014-5-16,56,55,54,32,32,32,42,41,40,29.98,29.97,2,2,7,0.00
2014-5-17,55,55,55,39,39,38,55,54,54,30.10,30.09,0,0,1,0.00
2014-5-18,55,54,48,40,39,34,64,56,53,30.15,30.10,7,0,7,0.00
2014-5-19,68,55,44,44,38,32,65,54,36,30.19,30.06,13,0,13,0.00
2014-5-20,73,62,48,48,42,40,79,51,31,30.12,29.96,9,0,9,0.00
2014-5-21,76,64,57,58,50,40,91,63,43,29.98,29.86,3,0,3,0.00
2014-5-22,59,56,53,59,55,53,100,97,82,29.86,29.76,4,0,4,0.00
2014-5-23,59,56,53,59,56,53,100,100,99,29.93,29.83,1,0,1,0.00
2014-5-24,63,55,51,60,54,51,100,96,79,30.08,29.91,3,0,3,0.00
2014-5-25,73,59,52,57,53,50,100,82,50,30.10,30.04,5,0,5,0.00
2014-5-26,69,65,61,53,52,51,75,66,58,30.04,29.99,0,0,0,0.00
2014-5-27,61,57,53,51,51,50,92,83,75,29.99,29.94,0,0,0,0.00
2014-5-28,53,50,46,51,49,44,100,97,92,30.18,29.92,2,0,2,0.00
2014-5-29,64,53,41,50,46,40,97,78,57,30.23,30.12,2,0,2,0.00
2014-5-30,72,58,50,56,51,44,98,78,49,30.15,29.99,5,0,5,0.00
2014-5-31,63,56,48,54,51,48,99,83,67,30.28,30.07,11,0,11,0.00
2014-6-1,73,61,51,53,48,42,93,65,39,30.36,30.23,2,0,2,0.00
2014-6-2,79,66,54,63,55,43,85,68,54,30.24,29.99,2,0,2,0.00
2014-6-3,84,70,62,71,64,58,100,84,63,30.00,29.80,3,0,3,0.00
2014-6-4,72,65,59,65,60,53,100,84,65,29.86,29.74,4,0,4,0.00
2014-6-5,64,60,58,59,57,53,100,90,67,29.76,29.66,0,0,0,0.00
2014-6-6,68,64,62,59,59,59,92,84,77,29.83,29.72,0,0,0,0.00
2014-6-7,72,70,67,60,59,57,77,70,62,29.97,29.83,0,0,0,0.00
2014-6-8,78,70,62,66,59,55,80,68,52,29.95,29.84,1,0,1,0.00
2014-6-9,65,60,59,61,59,57,100,96,77,29.98,29.87,3,0,3,0.00
2014-6-10,70,64,59,68,64,59,100,99,92,29.99,29.92,0,0,0,0.00
2014-6-11,67,58,56,66,57,53,100,96,84,30.12,29.98,5,0,5,0.00
2014-6-12,65,60,55,65,59,54,100,100,95,30.09,29.94,3,0,3,0.00
2014-6-13,70,65,62,70,65,62,100,100,100,29.94,29.72,3,0,3,0.00
2014-6-14,64,60,54,64,58,50,100,93,77,30.00,29.77,7,0,7,0.00
2014-6-15,71,62,52,62,56,51,96,82,68,30.10,29.99,9,0,9,1.23
2014-6-16,78,67,58,66,60,56,93,77,58,30.16,30.01,2,0,2,19.51
2014-6-17,83,73,63,73,67,58,95,81,61,30.05,29.83,3,0,3,2.58
2014-6-18,80,74,68,70,67,62,91,78,65,29.96,29.77,12,0,12,0.00
2014-6-19,75,68,62,70,63,51,100,85,57,29.99,29.92,2,0,2,0.00
2014-6-20,72,64,57,58,52,48,77,66,49,30.00,29.89,2,0,4,0.00
2014-6-21,70,62,54,57,52,45,85,69,54,29.98,29.89,1,0,1,0.00
2014-6-22,73,65,56,60,55,51,92,71,51,30.02,29.91,3,0,3,0.00
2014-6-23,79,67,59,64,58,53,86,73,52,30.12,30.01,3,0,3,0.00
2014-6-24,76,67,60,66,60,56,92,79,64,30.12,29.99,3,0,3,0.00
2014-6-25,79,70,63,73,67,59,99,90,80,29.99,29.80,3,0,3,0.00
2014-6-26,76,70,66,71,68,63,100,93,80,29.97,29.78,4,0,4,0.00
2014-6-27,76,69,62,66,62,55,99,80,51,30.20,29.97,3,0,3,0.00
2014-6-28,80,69,60,66,61,56,95,76,47,30.27,30.19,2,0,2,0.00
2014-6-29,81,70,61,68,62,58,90,77,54,30.24,30.09,2,0,2,0.00
2014-6-30,79,70,62,70,63,56,91,79,68,30.10,29.93,2,0,2,0.00
2014-7-1,83,74,66,75,70,65,98,88,75,29.94,29.78,3,0,3,0.00
2014-7-2,85,74,68,78,72,68,100,93,78,29.90,29.80,5,0,5,0.00
2014-7-3,69,69,69,69,69,69,100,100,100,29.90,29.88,1,0,1,0.00
2014-7-4,71,70,70,69,69,69,97,96,95,29.88,29.87,0,0,0,0.00
2014-7-5,72,71,71,69,69,69,95,93,92,29.87,29.86,0,0,0,0.00
2014-7-6,72,72,72,69,69,69,92,90,89,29.86,29.85,0,0,0,0.00
2014-7-7,73,73,72,69,69,69,89,87,86,29.85,29.84,0,0,0,0.00
2014-7-8,74,74,73,69,69,69,86,85,83,29.84,29.84,0,0,0,0.00
2014-7-9,76,74,67,71,68,63,90,83,81,29.94,29.82,1,0,1,0.00
2014-7-10,74,68,61,65,62,59,99,83,68,30.14,29.94,1,0,1,0.00
2014-7-11,76,69,61,64,59,54,89,72,53,30.22,30.13,2,0,2,0.00
2014-7-12,81,71,63,70,64,60,93,80,65,30.21,30.09,1,0,1,0.00
2014-7-13,77,70,65,73,67,61,95,89,64,30.09,29.85,9,0,9,0.08
2014-8-15,60,57,55,55,54,53,93,89,84,30.06,30.01,0,0,1,0.00
2014-8-16,70,62,53,61,56,52,95,81,64,30.09,29.99,3,0,3,0.00
2014-8-17,74,66,61,65,59,54,86,78,66,29.99,29.89,3,0,4,0.00
2014-8-18,72,63,56,62,57,53,92,80,66,29.98,29.90,4,0,4,0.00
2014-8-19,74,65,57,62,57,51,95,74,55,30.01,29.95,2,0,2,0.01
2014-8-20,77,69,63,69,65,60,100,88,74,30.08,30.00,3,0,3,0.00
2014-8-21,73,66,60,69,64,60,100,94,84,30.13,30.06,5,0,5,0.27
2014-8-22,67,64,62,64,62,61,100,96,87,30.14,30.07,4,0,4,0.03
2014-8-23,68,63,60,63,60,57,99,92,81,30.20,30.12,2,0,2,0.00
2014-8-24,72,64,58,65,61,57,100,90,77,30.24,30.19,3,0,3,0.00
2014-8-25,77,70,61,68,63,59,96,81,67,30.27,30.20,2,0,2,0.00
2014-8-26,80,72,66,70,65,61,92,77,61,30.24,30.12,3,0,3,0.00
2014-8-27,83,72,63,75,68,62,100,88,72,30.12,29.92,4,0,4,0.87
2014-8-28,71,64,58,69,59,53,100,84,59,30.10,29.92,6,0,6,0.13
2014-8-29,68,64,59,59,57,56,90,79,65,30.32,30.25,3,0,3,0.02
2014-8-30,72,65,56,66,61,55,97,87,72,30.35,30.21,5,0,5,0.01
2014-8-31,78,69,66,74,68,63,100,95,88,30.22,30.03,5,0,5,0.95
2014-9-1,80,72,67,75,71,67,100,95,81,30.07,29.98,3,0,3,0.00
2014-9-2,82,76,69,76,72,69,100,89,78,30.00,29.82,4,0,4,0.01
2014-9-3,77,69,64,70,63,60,93,84,61,30.08,29.83,6,0,6,0.00
2014-9-4,71,70,68,65,63,62,88,80,73,30.21,30.20,2,0,2,0.00
2014-9-5,80,72,66,74,69,63,99,90,80,30.24,30.07,3,0,4,0.00
2014-9-6,84,73,58,77,71,58,100,94,73,30.07,29.87,6,0,6,0.56
2014-9-7,70,62,57,62,58,53,100,86,61,30.29,29.99,4,0,4,0.04
2014-9-8,69,62,54,59,56,51,94,81,67,30.42,30.29,3,0,4,0.00
2014-9-9,65,59,52,61,57,51,96,92,84,30.38,30.24,3,0,3,0.00
2014-9-10,69,61,53,62,57,52,98,88,74,30.24,30.11,2,0,2,0.00
2014-9-11,71,64,60,68,61,56,91,90,88,30.04,29.96,4,0,4,0.00
2014-9-12,64,57,52,57,52,49,95,85,70,30.29,30.04,9,0,9,0.00
2014-9-13,58,54,48,57,52,47,100,96,86,30.30,30.18,3,0,4,0.30
2014-9-14,59,51,45,51,48,44,100,87,67,30.36,30.24,7,0,7,0.00
2014-9-15,61,54,46,53,48,43,91,80,65,30.33,30.16,2,0,4,0.00
2014-9-16,61,56,53,59,54,50,100,93,86,30.16,30.05,2,0,3,0.19
2014-9-17,64,56,49,54,50,46,95,80,63,30.14,30.04,3,0,3,0.01
2014-9-18,66,59,54,56,51,46,89,75,66,30.20,30.03,4,0,5,0.00
2014-9-19,58,50,42,51,46,41,96,85,67,30.46,30.20,3,0,3,0.00
2014-9-20,68,59,49,61,56,47,99,89,75,30.43,30.15,5,0,7,0.00
2014-9-21,70,65,61,68,64,61,100,98,92,30.15,29.67,3,0,4,0.00